createdAt,value
2022-10-29T00:01:34.384Z,98020.13
2022-10-29T00:04:37.375Z,98014.22
2022-10-29T00:07:41.612Z,98014.41
2022-10-29T00:10:44.526Z,98011.31
2022-10-29T00:13:48.914Z,98006.41
2022-10-29T00:16:51.797Z,98016.88
2022-10-29T00:19:54.787Z,98009.50
2022-10-29T00:22:59.287Z,98005.81
2022-10-29T00:26:03.039Z,98006.84
2022-10-29T00:29:05.977Z,98003.75
2022-10-29T00:32:10.022Z,97989.25
2022-10-29T00:35:13.015Z,97989.22
2022-10-29T00:38:17.275Z,97986.56
2022-10-29T00:41:22.702Z,97974.50
2022-10-29T00:44:35.380Z,97979.41
2022-10-29T00:47:39.166Z,97984.13
2022-10-29T00:50:42.129Z,97986.56
2022-10-29T00:53:49.740Z,97987.38
2022-10-29T00:56:56.523Z,97977.09
2022-10-29T00:59:59.454Z,97963.19
2022-10-29T01:03:02.407Z,97953.56
2022-10-29T01:06:06.407Z,97941.09
2022-10-29T01:09:10.752Z,97942.34
2022-10-29T01:12:32.025Z,97941.50
2022-10-29T01:15:42.234Z,97936.97
2022-10-29T01:18:55.657Z,97941.09
2022-10-29T01:22:04.137Z,97932.06
2022-10-29T01:25:44.747Z,97925.53
2022-10-29T01:29:04.858Z,97915.72
2022-10-29T01:32:12.250Z,97923.88
2022-10-29T01:35:19.987Z,97914.91
2022-10-29T01:38:35.825Z,97912.44
2022-10-29T01:41:50.887Z,97915.72
2022-10-29T01:45:00.125Z,97909.53
2022-10-29T01:48:10.276Z,97906.25
2022-10-29T01:51:20.253Z,97909.06
2022-10-29T01:54:23.224Z,97906.59
2022-10-29T01:57:32.291Z,97906.59
2022-10-29T02:00:41.724Z,97897.59
2022-10-29T02:03:55.244Z,97896.66
2022-10-29T02:07:05.770Z,97891.28
2022-10-29T02:10:15.277Z,97886.75
2022-10-29T02:13:20.385Z,97887.19
2022-10-29T02:16:25.602Z,97881.84
2022-10-29T02:19:32.940Z,97880.22
2022-10-29T02:22:36.322Z,97883.03
2022-10-29T02:25:39.311Z,97873.22
2022-10-29T02:28:42.286Z,97856.03
2022-10-29T02:31:45.364Z,97844.22
2022-10-29T02:34:49.654Z,97856.78
2022-10-29T02:37:52.728Z,97865.19
2022-10-29T02:40:55.620Z,97855.09
2022-10-29T02:43:58.597Z,97859.47
2022-10-29T02:47:01.577Z,97863.44
2022-10-29T02:50:07.007Z,97861.25
2022-10-29T02:53:09.914Z,97857.28
2022-10-29T02:56:12.802Z,97854.81
2022-10-29T02:59:15.737Z,97856.47
2022-10-29T03:02:18.817Z,97868.19
2022-10-29T03:05:23.397Z,97853.25
2022-10-29T03:08:26.256Z,97853.59
2022-10-29T03:11:29.176Z,97856.91
2022-10-29T03:14:32.106Z,97855.72
2022-10-29T03:17:34.976Z,97870.59
2022-10-29T03:20:39.256Z,97871.16
2022-10-29T03:23:42.181Z,97864.34
2022-10-29T03:26:45.041Z,97873.44
2022-10-29T03:29:47.885Z,97852.06
2022-10-29T03:32:50.842Z,97859.34
2022-10-29T03:35:59.117Z,97867.06
2022-10-29T03:39:02.072Z,97861.53
2022-10-29T03:42:05.209Z,97871.06
2022-10-29T03:45:09.803Z,97865.28
2022-10-29T03:48:12.697Z,97856.97
2022-10-29T03:51:16.950Z,97858.75
2022-10-29T03:54:20.112Z,97866.28
2022-10-29T03:57:23.101Z,97865.91
2022-10-29T04:00:26.032Z,97874.84
2022-10-29T04:03:30.695Z,97865.25
2022-10-29T04:06:35.007Z,97870.09
2022-10-29T04:09:37.852Z,97884.19
2022-10-29T04:12:40.906Z,97893.19
2022-10-29T04:15:44.141Z,97901.22
2022-10-29T04:18:47.882Z,97900.84
2022-10-29T04:24:12.076Z,97899.50
2022-10-29T04:28:43.082Z,97890.53
2022-10-29T04:31:46.565Z,97897.19
2022-10-29T04:34:49.455Z,97910.66
2022-10-29T04:37:55.449Z,97926.81
2022-10-29T04:41:00.350Z,97938.25
2022-10-29T04:44:03.439Z,97943.28
2022-10-29T04:47:06.323Z,97944.78
2022-10-29T04:50:09.947Z,97945.59
2022-10-29T04:53:14.228Z,97958.88
2022-10-29T04:56:17.508Z,97959.81
2022-10-29T04:59:20.398Z,97962.06
2022-10-29T05:02:23.274Z,97968.16
2022-10-29T05:05:27.313Z,97966.34
2022-10-29T05:08:31.653Z,97976.28
2022-10-29T05:11:34.540Z,97979.44
2022-10-29T05:14:37.459Z,97973.38
2022-10-29T05:17:40.374Z,97975.97
2022-10-29T05:20:43.291Z,97976.34
2022-10-29T05:23:47.584Z,97990.97
2022-10-29T05:26:50.563Z,97999.75
2022-10-29T05:29:53.463Z,97979.41
2022-10-29T05:32:57.048Z,97998.38
2022-10-29T05:36:00.975Z,98003.84
2022-10-29T05:39:05.303Z,98021.59
2022-10-29T05:42:08.326Z,98022.13
2022-10-29T05:45:11.751Z,98027.03
2022-10-29T05:48:14.851Z,98021.28
2022-10-29T05:51:17.741Z,98039.19
2022-10-29T05:54:22.507Z,98048.03
2022-10-29T05:57:25.396Z,98056.69
2022-10-29T06:00:30.659Z,98055.00
2022-10-29T06:03:33.705Z,98051.75
2022-10-29T06:06:36.683Z,98057.06
2022-10-29T06:09:41.058Z,98066.03
2022-10-29T06:12:43.938Z,98078.00
2022-10-29T06:15:47.095Z,98095.81
2022-10-29T06:18:50.380Z,98102.72
2022-10-29T06:21:55.277Z,98113.91
2022-10-29T06:25:03.538Z,98121.81
2022-10-29T06:28:08.188Z,98126.41
2022-10-29T06:31:11.096Z,98120.66
2022-10-29T06:34:14.750Z,98127.41
2022-10-29T06:37:17.770Z,98126.75
2022-10-29T06:40:21.988Z,98134.00
2022-10-29T06:43:24.845Z,98137.44
2022-10-29T06:46:27.711Z,98167.53
2022-10-29T06:49:30.537Z,98193.19
2022-10-29T06:52:33.517Z,98209.00
2022-10-29T06:55:37.866Z,98216.19
2022-10-29T06:58:40.699Z,98217.69
2022-10-29T07:01:43.632Z,98211.41
2022-10-29T07:04:46.532Z,98205.06
2022-10-29T07:07:49.452Z,98223.16
2022-10-29T07:10:54.749Z,98234.78
2022-10-29T07:13:57.609Z,98246.56
2022-10-29T07:17:00.461Z,98270.38
2022-10-29T07:20:03.687Z,98291.41
2022-10-29T07:23:06.919Z,98302.53
2022-10-29T07:26:11.435Z,98288.13
2022-10-29T07:29:14.310Z,98274.63
2022-10-29T07:32:17.269Z,98260.16
2022-10-29T07:35:20.080Z,98264.63
2022-10-29T07:38:22.985Z,98247.44
2022-10-29T07:41:27.257Z,98240.28
2022-10-29T07:44:30.116Z,98238.25
2022-10-29T07:47:33.028Z,98206.91
2022-10-29T07:50:36.115Z,98187.25
2022-10-29T07:53:39.020Z,98169.03
2022-10-29T07:56:46.689Z,98171.34
2022-10-29T07:59:52.063Z,98167.94
2022-10-29T08:02:55.800Z,98166.91
2022-10-29T08:05:58.960Z,98153.47
2022-10-29T08:09:01.804Z,98139.84
2022-10-29T08:12:09.152Z,98131.31
2022-10-29T08:15:12.356Z,98122.13
2022-10-29T08:18:17.510Z,98111.50
2022-10-29T08:21:20.562Z,98076.47
2022-10-29T08:24:23.549Z,98060.00
2022-10-29T08:27:28.111Z,98038.59
2022-10-29T08:30:31.858Z,98023.41
2022-10-29T08:33:34.730Z,97999.38
2022-10-29T08:36:37.583Z,97989.81
2022-10-29T08:39:40.574Z,97991.13
2022-10-29T08:42:57.708Z,97984.00
2022-10-29T08:46:01.294Z,97962.75
2022-10-29T08:49:11.681Z,97966.03
2022-10-29T08:52:20.200Z,97966.47
2022-10-29T08:55:26.330Z,97958.94
2022-10-29T08:58:34.694Z,97964.88
2022-10-29T09:01:38.872Z,97970.59
2022-10-29T09:04:41.796Z,97962.00
2022-10-29T09:08:02.101Z,97973.47
2022-10-29T09:11:22.738Z,97974.06
2022-10-29T09:14:40.596Z,97984.09
2022-10-29T09:17:52.842Z,97980.38
2022-10-29T09:21:02.587Z,97986.25
2022-10-29T09:24:14.690Z,97996.09
2022-10-29T09:27:24.879Z,97991.16
2022-10-29T09:30:31.864Z,97982.41
2022-10-29T09:33:34.829Z,97971.69
2022-10-29T09:36:37.988Z,97967.59
2022-10-29T09:39:43.270Z,97966.69
2022-10-29T09:42:48.594Z,97967.38
2022-10-29T09:46:01.587Z,97976.66
2022-10-29T09:49:16.634Z,97984.84
2022-10-29T09:52:24.081Z,97968.66
2022-10-29T09:55:29.261Z,97970.75
2022-10-29T09:58:32.165Z,97983.19
2022-10-29T10:01:36.673Z,97985.56
2022-10-29T10:04:46.461Z,97984.09
2022-10-29T10:08:06.798Z,97999.75
2022-10-29T10:11:19.410Z,97995.31
2022-10-29T10:14:24.109Z,97999.03
2022-10-29T10:17:28.317Z,97996.75
2022-10-29T10:20:39.282Z,98007.34
2022-10-29T10:23:46.014Z,98002.41
2022-10-29T10:26:48.876Z,98004.56
2022-10-29T10:30:12.656Z,98010.72
2022-10-29T10:33:27.092Z,98010.78
2022-10-29T10:36:30.916Z,98003.09
2022-10-29T10:39:37.747Z,97995.53
2022-10-29T10:42:44.341Z,97989.88
2022-10-29T10:45:54.690Z,97985.69
2022-10-29T10:49:02.132Z,97993.09
2022-10-29T10:52:07.499Z,98000.78
2022-10-29T10:55:22.983Z,97994.03
2022-10-29T10:58:32.472Z,97994.16
2022-10-29T11:01:40.795Z,97990.31
2022-10-29T11:04:46.658Z,97980.38
2022-10-29T11:07:58.614Z,97984.91
2022-10-29T11:11:08.122Z,97984.44
2022-10-29T11:14:15.860Z,97981.31
2022-10-29T11:17:28.952Z,97975.25
2022-10-29T11:20:37.055Z,97976.44
2022-10-29T11:23:54.934Z,97967.47
2022-10-29T11:27:04.156Z,97973.41
2022-10-29T11:30:10.977Z,97966.50
2022-10-29T11:33:23.714Z,97972.44
2022-10-29T11:36:32.434Z,97972.81
2022-10-29T11:39:46.710Z,97974.19
2022-10-29T11:42:50.846Z,97970.94
2022-10-29T11:46:06.131Z,97957.41
2022-10-29T11:49:23.848Z,97972.09
2022-10-29T11:52:35.607Z,97969.19
2022-10-29T11:55:48.195Z,97968.34
2022-10-29T11:58:55.560Z,97967.19
2022-10-29T12:02:07.187Z,97956.00
2022-10-29T12:05:20.961Z,97953.94
2022-10-29T12:08:43.917Z,97948.72
2022-10-29T12:11:53.769Z,97949.38
2022-10-29T12:15:04.290Z,97945.75
2022-10-29T12:18:18.880Z,97944.09
2022-10-29T12:21:29.225Z,97937.22
2022-10-29T12:24:53.442Z,97937.34
2022-10-29T12:28:07.764Z,97931.84
2022-10-29T12:31:24.363Z,97930.06
2022-10-29T12:34:36.486Z,97932.69
2022-10-29T12:37:45.323Z,97926.19
2022-10-29T12:40:53.208Z,97924.38
2022-10-29T12:44:02.268Z,97932.13
2022-10-29T12:47:12.899Z,97920.28
2022-10-29T12:50:34.572Z,97914.59
2022-10-29T12:53:43.158Z,97912.41
2022-10-29T12:56:50.306Z,97917.66
2022-10-29T12:59:53.746Z,97918.47
2022-10-29T13:02:57.374Z,97909.50
2022-10-29T13:06:39.127Z,97913.38
2022-10-29T13:09:44.299Z,97905.78
2022-10-29T13:13:03.032Z,97912.53
2022-10-29T13:16:12.896Z,97911.47
2022-10-29T13:19:22.322Z,97917.09
2022-10-29T13:22:56.843Z,97906.25
2022-10-29T13:26:00.616Z,97913.16
2022-10-29T13:29:04.980Z,97902.91
2022-10-29T13:32:08.721Z,97901.03
2022-10-29T13:35:39.728Z,97899.97
2022-10-29T13:38:57.957Z,97885.59
2022-10-29T13:42:13.600Z,97893.41
2022-10-29T13:45:19.067Z,97886.50
2022-10-29T13:48:29.181Z,97884.88
2022-10-29T13:51:40.118Z,97875.56
2022-10-29T13:54:48.364Z,97884.44
2022-10-29T13:58:00.067Z,97881.06
2022-10-29T14:01:10.262Z,97876.16
2022-10-29T14:04:23.550Z,97882.09
2022-10-29T14:07:35.018Z,97881.53
2022-10-29T14:10:46.642Z,97883.59
2022-10-29T14:13:54.272Z,97882.47
2022-10-29T14:17:16.286Z,97875.00
2022-10-29T14:20:25.355Z,97875.94
2022-10-29T14:23:30.233Z,97873.72
2022-10-29T14:26:34.587Z,97876.97
2022-10-29T14:29:38.389Z,97872.00
2022-10-29T14:32:45.355Z,97872.31
2022-10-29T14:35:48.684Z,97872.09
2022-10-29T14:38:53.871Z,97873.38
2022-10-29T14:41:57.594Z,97875.34
2022-10-29T14:45:03.718Z,97876.50
2022-10-29T14:48:16.239Z,97876.84
2022-10-29T14:51:23.238Z,97881.03
2022-10-29T14:54:32.001Z,97886.50
2022-10-29T14:57:40.574Z,97876.38
2022-10-29T15:01:02.976Z,97876.63
2022-10-29T15:04:19.861Z,97873.81
2022-10-29T15:07:32.237Z,97885.69
2022-10-29T15:10:49.202Z,97875.88
2022-10-29T15:13:52.188Z,97869.59
2022-10-29T15:16:55.283Z,97863.66
2022-10-29T15:20:03.740Z,97847.78
2022-10-29T15:23:07.437Z,97844.56
2022-10-29T15:26:15.957Z,97852.53
2022-10-29T15:29:27.876Z,97842.38
2022-10-29T15:32:34.064Z,97845.72
2022-10-29T15:35:51.820Z,97840.94
2022-10-29T15:39:26.695Z,97841.56
2022-10-29T15:42:32.172Z,97847.03
2022-10-29T15:45:35.167Z,97840.63
2022-10-29T15:48:38.113Z,97848.97
2022-10-29T15:51:42.574Z,97851.41
2022-10-29T15:54:45.679Z,97849.41
2022-10-29T15:57:51.767Z,97846.56
2022-10-29T16:00:54.690Z,97834.06
2022-10-29T16:03:57.682Z,97832.38
2022-10-29T16:07:02.096Z,97849.41
2022-10-29T16:10:05.516Z,97856.03
2022-10-29T16:13:11.982Z,97860.59
2022-10-29T16:16:17.332Z,97860.22
2022-10-29T16:19:20.268Z,97866.13
2022-10-29T16:22:29.526Z,97857.91
2022-10-29T16:25:32.715Z,97859.28
2022-10-29T16:28:35.603Z,97865.47
2022-10-29T16:31:38.697Z,97866.72
2022-10-29T16:34:41.630Z,97861.25
2022-10-29T16:37:45.882Z,97863.03
2022-10-29T16:40:48.980Z,97861.38
2022-10-29T16:43:52.606Z,97858.59
2022-10-29T16:46:55.486Z,97857.91
2022-10-29T16:49:58.479Z,97852.06
2022-10-29T16:53:06.199Z,97851.09
2022-10-29T16:56:09.498Z,97840.47
2022-10-29T16:59:12.404Z,97851.72
2022-10-29T17:02:17.720Z,97854.97
2022-10-29T17:05:20.652Z,97847.31
2022-10-29T17:08:24.888Z,97859.69
2022-10-29T17:11:27.829Z,97849.44
2022-10-29T17:14:30.787Z,97841.09
2022-10-29T17:17:33.861Z,97845.06
2022-10-29T17:20:36.709Z,97850.84
2022-10-29T17:23:40.910Z,97851.41
2022-10-29T17:26:43.822Z,97854.47
2022-10-29T17:29:46.774Z,97856.38
2022-10-29T17:32:49.741Z,97852.41
2022-10-29T17:36:02.142Z,97855.31
2022-10-29T17:39:07.014Z,97855.81
2022-10-29T17:42:09.875Z,97858.28
2022-10-29T17:45:13.560Z,97850.13
2022-10-29T17:48:18.659Z,97846.63
2022-10-29T17:51:23.023Z,97857.72
2022-10-29T17:54:27.946Z,97862.41
2022-10-29T17:57:31.397Z,97856.09
2022-10-29T18:00:34.388Z,97853.31
2022-10-29T18:03:38.264Z,97857.16
2022-10-29T18:06:41.156Z,97865.97
2022-10-29T18:09:45.409Z,97862.72
2022-10-29T18:12:48.274Z,97862.09
2022-10-29T18:15:51.137Z,97861.31
2022-10-29T18:19:01.317Z,97853.38
2022-10-29T18:22:04.710Z,97843.56
2022-10-29T18:25:10.531Z,97840.13
2022-10-29T18:28:13.571Z,97836.44
2022-10-29T18:31:16.552Z,97840.09
2022-10-29T18:34:19.623Z,97833.16
2022-10-29T18:37:22.600Z,97825.38
2022-10-29T18:40:26.885Z,97822.13
2022-10-29T18:43:30.974Z,97823.34
2022-10-29T18:46:34.114Z,97822.53
2022-10-29T18:49:37.063Z,97821.50
2022-10-29T18:52:39.982Z,97831.31
2022-10-29T18:55:51.293Z,97824.56
2022-10-29T18:58:55.713Z,97828.66
2022-10-29T19:01:58.831Z,97819.66
2022-10-29T19:05:02.095Z,97822.13
2022-10-29T19:08:05.795Z,97828.66
2022-10-29T19:11:12.564Z,97821.69
2022-10-29T19:14:15.452Z,97822.72
2022-10-29T19:17:18.384Z,97822.13
2022-10-29T19:20:21.234Z,97831.94
2022-10-29T19:23:24.260Z,97829.06
2022-10-29T19:26:30.061Z,97820.50
2022-10-29T19:29:33.046Z,97832.13
2022-10-29T19:32:36.032Z,97822.31
2022-10-29T19:35:38.915Z,97835.22
2022-10-29T19:38:41.921Z,97835.41
2022-10-29T19:41:46.497Z,97832.56
2022-10-29T19:44:53.593Z,97832.13
2022-10-29T19:48:00.086Z,97834.38
2022-10-29T19:51:04.134Z,97836.84
2022-10-29T19:54:08.248Z,97831.91
2022-10-29T19:57:12.505Z,97834.97
2022-10-29T20:00:17.785Z,97836.00
2022-10-29T20:03:21.375Z,97837.22
2022-10-29T20:06:24.320Z,97827.00
2022-10-29T20:09:27.309Z,97836.63
2022-10-29T20:12:31.720Z,97832.31
2022-10-29T20:15:34.839Z,97818.84
2022-10-29T20:18:38.301Z,97830.28
2022-10-29T20:21:41.449Z,97835.41
2022-10-29T20:24:44.498Z,97842.53
2022-10-29T20:27:48.932Z,97841.94
2022-10-29T20:30:51.867Z,97841.50
2022-10-29T20:33:56.821Z,97839.44
2022-10-29T20:40:02.472Z,97834.75
2022-10-29T20:43:07.209Z,97845.78
2022-10-29T20:46:10.328Z,97849.84
2022-10-29T20:49:13.267Z,97848.84
2022-10-29T20:52:16.583Z,97853.13
2022-10-29T20:55:19.498Z,97849.03
2022-10-29T20:58:23.912Z,97855.56
2022-10-29T21:01:27.051Z,97859.25
2022-10-29T21:04:30.368Z,97859.66
2022-10-29T21:07:33.428Z,97860.28
2022-10-29T21:10:36.518Z,97866.19
2022-10-29T21:13:41.052Z,97871.50
2022-10-29T21:16:43.990Z,97869.25
2022-10-29T21:19:47.179Z,97873.97
2022-10-29T21:22:50.229Z,97868.22
2022-10-29T21:25:53.776Z,97870.88
2022-10-29T21:28:58.228Z,97871.47
2022-10-29T21:32:01.183Z,97862.06
2022-10-29T21:35:04.140Z,97856.16
2022-10-29T21:38:07.245Z,97857.56
2022-10-29T21:41:10.586Z,97854.09
2022-10-29T21:44:14.843Z,97861.84
2022-10-29T21:47:17.728Z,97860.59
2022-10-29T21:50:20.597Z,97857.16
2022-10-29T21:53:23.451Z,97853.88
2022-10-29T21:56:26.353Z,97852.25
2022-10-29T21:59:30.573Z,97853.00
2022-10-29T22:02:33.475Z,97851.38
2022-10-29T22:05:36.390Z,97849.72
2022-10-29T22:08:39.520Z,97841.78
2022-10-29T22:11:42.499Z,97834.22
2022-10-29T22:14:47.665Z,97832.16
2022-10-29T22:17:50.587Z,97836.22
2022-10-29T22:21:03.638Z,97832.97
2022-10-29T22:24:07.121Z,97826.81
2022-10-29T22:27:10.028Z,97831.72
2022-10-29T22:30:14.852Z,97820.09
2022-10-29T22:33:17.858Z,97827.03
2022-10-29T22:36:23.605Z,97828.88
2022-10-29T22:39:26.762Z,97815.41
2022-10-29T22:42:29.602Z,97816.03
2022-10-29T22:45:33.847Z,97818.69
2022-10-29T22:48:37.079Z,97813.78
2022-10-29T22:51:40.330Z,97808.88
2022-10-29T22:54:43.200Z,97811.13
2022-10-29T22:57:46.133Z,97802.75
2022-10-29T23:00:50.439Z,97810.94
2022-10-29T23:03:53.761Z,97809.91
2022-10-29T23:07:01.616Z,97815.59
2022-10-29T23:10:05.304Z,97818.91
2022-10-29T23:13:08.105Z,97821.13
2022-10-29T23:16:12.396Z,97822.34
2022-10-29T23:19:15.233Z,97808.47
2022-10-29T23:22:19.237Z,97811.31
2022-10-29T23:25:23.841Z,97810.88
2022-10-29T23:28:26.696Z,97818.06
2022-10-29T23:31:30.949Z,97821.13
2022-10-29T23:34:33.779Z,97813.53
2022-10-29T23:37:36.685Z,97815.81
2022-10-29T23:40:39.693Z,97819.25
2022-10-29T23:43:42.605Z,97810.88
2022-10-29T23:46:46.857Z,97805.19
2022-10-29T23:49:49.736Z,97800.22
2022-10-29T23:52:52.633Z,97800.03
2022-10-29T23:55:55.490Z,97783.47
2022-10-29T23:58:58.419Z,97785.31
